createdAt,value
2022-11-19T00:02:46.122Z,1.03
2022-11-19T00:05:32.962Z,1.03
2022-11-19T00:08:19.901Z,0.80
2022-11-19T00:11:09.763Z,1.03
2022-11-19T00:13:58.751Z,1.23
2022-11-19T00:16:45.647Z,0.97
2022-11-19T00:19:33.240Z,1.03
2022-11-19T00:22:20.166Z,1.10
2022-11-19T00:25:07.371Z,1.00
2022-11-19T00:27:54.278Z,1.00
2022-11-19T00:30:48.098Z,1.07
2022-11-19T00:33:35.560Z,0.83
2022-11-19T00:36:23.753Z,0.87
2022-11-19T00:39:10.724Z,0.90
2022-11-19T00:41:57.868Z,1.07
2022-11-19T00:44:44.868Z,1.00
2022-11-19T00:47:31.931Z,1.30
2022-11-19T00:50:18.792Z,0.90
2022-11-19T00:53:05.758Z,1.00
2022-11-19T00:55:52.699Z,0.90
2022-11-19T00:58:39.590Z,1.30
2022-11-19T01:01:27.812Z,1.20
2022-11-19T01:04:14.860Z,1.17
2022-11-19T01:07:01.754Z,1.33
2022-11-19T01:09:48.691Z,1.00
2022-11-19T01:12:19.591Z,0.90
2022-11-19T01:15:06.475Z,1.20
2022-11-19T01:17:53.366Z,1.20
2022-11-19T01:20:40.357Z,1.00
2022-11-19T01:23:27.376Z,1.30
2022-11-19T01:26:14.501Z,1.10
2022-11-19T01:29:01.538Z,1.20
2022-11-19T01:31:49.843Z,0.90
2022-11-19T01:34:36.843Z,1.20
2022-11-19T01:37:23.807Z,1.00
2022-11-19T01:40:10.700Z,1.10
2022-11-19T01:43:09.535Z,1.07
2022-11-19T01:46:03.987Z,1.27
2022-11-19T01:48:54.090Z,0.90
2022-11-19T01:51:55.745Z,1.10
2022-11-19T01:54:51.253Z,1.10
2022-11-19T01:57:38.530Z,1.10
2022-11-19T02:00:27.200Z,1.03
2022-11-19T02:03:14.905Z,1.20
2022-11-19T02:06:02.899Z,1.23
2022-11-19T02:09:03.249Z,1.10
2022-11-19T02:12:14.806Z,1.07
2022-11-19T02:15:25.501Z,0.80
2022-11-19T02:18:48.263Z,0.90
2022-11-19T02:21:50.441Z,0.70
2022-11-19T02:25:06.218Z,1.00
2022-11-19T02:28:16.030Z,1.00
2022-11-19T02:31:09.941Z,0.63
2022-11-19T02:34:19.975Z,0.90
2022-11-19T02:37:30.300Z,0.60
2022-11-19T02:40:23.162Z,0.80
2022-11-19T02:43:40.470Z,0.80
2022-11-19T02:46:34.936Z,1.00
2022-11-19T02:49:22.508Z,0.63
2022-11-19T02:52:10.395Z,0.90
2022-11-19T02:54:57.470Z,0.60
2022-11-19T02:57:44.479Z,0.90
2022-11-19T03:00:31.275Z,0.90
2022-11-19T03:03:23.559Z,1.10
2022-11-19T03:06:15.961Z,1.00
2022-11-19T03:09:03.890Z,1.00
2022-11-19T03:11:52.752Z,0.97
2022-11-19T03:14:44.567Z,0.90
2022-11-19T03:17:47.879Z,1.20
2022-11-19T03:20:44.051Z,1.10
2022-11-19T03:23:33.503Z,1.00
2022-11-19T03:26:44.782Z,0.90
2022-11-19T03:29:34.118Z,0.83
2022-11-19T03:32:46.180Z,0.83
2022-11-19T03:35:40.692Z,0.80
2022-11-19T03:38:32.356Z,0.87
2022-11-19T03:41:21.563Z,0.80
2022-11-19T03:44:16.975Z,0.70
2022-11-19T03:47:07.404Z,1.07
2022-11-19T03:49:59.200Z,0.90
2022-11-19T03:52:46.254Z,0.80
2022-11-19T03:55:33.454Z,0.83
2022-11-19T03:58:25.110Z,1.00
2022-11-19T04:01:12.547Z,1.00
2022-11-19T04:03:59.450Z,1.10
2022-11-19T04:06:46.419Z,1.10
2022-11-19T04:09:33.345Z,0.90
2022-11-19T04:12:20.797Z,0.70
2022-11-19T04:15:08.338Z,1.30
2022-11-19T04:17:55.424Z,1.20
2022-11-19T04:20:42.302Z,1.00
2022-11-19T04:23:29.575Z,1.30
2022-11-19T04:26:16.369Z,0.70
2022-11-19T04:29:03.458Z,0.90
2022-11-19T04:31:50.418Z,0.60
2022-11-19T04:34:37.720Z,1.00
2022-11-19T04:37:24.543Z,1.00
2022-11-19T04:40:11.543Z,1.00
2022-11-19T04:42:58.375Z,1.27
2022-11-19T04:45:45.483Z,0.93
2022-11-19T04:48:32.382Z,0.93
2022-11-19T04:51:19.537Z,1.00
2022-11-19T04:54:06.355Z,0.70
2022-11-19T04:56:53.386Z,1.00
2022-11-19T04:59:40.178Z,0.83
2022-11-19T05:02:27.097Z,0.73
2022-11-19T05:05:13.994Z,1.00
2022-11-19T05:08:01.243Z,1.07
2022-11-19T05:10:48.111Z,0.97
2022-11-19T05:13:35.220Z,1.00
2022-11-19T05:16:22.107Z,0.90
2022-11-19T05:19:09.055Z,0.73
2022-11-19T05:21:56.107Z,1.00
2022-11-19T05:24:43.038Z,0.90
2022-11-19T05:27:29.877Z,0.90
2022-11-19T05:30:16.891Z,1.00
2022-11-19T05:33:03.951Z,1.20
2022-11-19T05:35:51.291Z,0.90
2022-11-19T05:38:38.132Z,1.10
2022-11-19T05:41:25.244Z,1.10
2022-11-19T05:44:12.081Z,1.17
2022-11-19T05:46:58.977Z,1.07
2022-11-19T05:49:45.896Z,1.30
2022-11-19T05:52:32.863Z,1.03
2022-11-19T05:55:19.800Z,1.03
2022-11-19T05:58:07.099Z,1.30
2022-11-19T06:00:54.047Z,0.87
2022-11-19T06:03:41.154Z,1.20
2022-11-19T06:06:28.102Z,1.20
2022-11-19T06:09:15.071Z,1.10
2022-11-19T06:12:07.729Z,1.07
2022-11-19T06:14:54.904Z,1.37
2022-11-19T06:17:42.057Z,1.60
2022-11-19T06:20:30.134Z,1.27
2022-11-19T06:23:17.075Z,1.20
2022-11-19T06:26:04.050Z,1.27
2022-11-19T06:28:50.883Z,1.10
2022-11-19T06:31:38.183Z,1.00
2022-11-19T06:34:25.255Z,1.20
2022-11-19T06:37:12.242Z,1.37
2022-11-19T06:39:59.031Z,1.30
2022-11-19T06:42:58.420Z,1.20
2022-11-19T06:45:45.296Z,0.93
2022-11-19T06:48:32.462Z,0.80
2022-11-19T06:51:19.318Z,1.00
2022-11-19T06:54:06.372Z,1.40
2022-11-19T06:56:53.132Z,1.13
2022-11-19T06:59:40.175Z,1.20
2022-11-19T07:02:27.368Z,1.23
2022-11-19T07:05:14.392Z,1.33
2022-11-19T07:08:03.198Z,1.40
2022-11-19T07:10:50.779Z,1.50
2022-11-19T07:13:37.771Z,1.10
2022-11-19T07:16:24.774Z,1.10
2022-11-19T07:19:11.664Z,1.20
2022-11-19T07:21:58.894Z,1.57
2022-11-19T07:24:46.022Z,1.20
2022-11-19T07:27:33.219Z,1.23
2022-11-19T07:30:20.126Z,1.10
2022-11-19T07:33:06.975Z,1.60
2022-11-19T07:35:53.876Z,1.40
2022-11-19T07:38:40.851Z,1.30
2022-11-19T07:41:27.745Z,1.03
2022-11-19T07:44:15.054Z,1.13
2022-11-19T07:47:02.276Z,1.00
2022-11-19T07:49:49.197Z,1.30
2022-11-19T07:52:36.395Z,1.40
2022-11-19T07:55:03.627Z,1.30
2022-11-19T07:57:50.478Z,1.13
2022-11-19T08:00:37.695Z,1.10
2022-11-19T08:03:24.556Z,1.10
2022-11-19T08:06:11.895Z,1.40
2022-11-19T08:08:58.880Z,1.33
2022-11-19T08:11:45.882Z,1.47
2022-11-19T08:14:33.676Z,1.30
2022-11-19T08:17:19.461Z,1.20
2022-11-19T08:20:06.518Z,1.07
2022-11-19T08:22:34.027Z,1.20
2022-11-19T08:25:20.902Z,1.40
2022-11-19T08:28:07.850Z,1.33
2022-11-19T08:30:54.734Z,1.40
2022-11-19T08:33:41.925Z,1.30
2022-11-19T08:36:29.051Z,0.87
2022-11-19T08:39:16.971Z,1.40
2022-11-19T08:42:02.626Z,1.30
2022-11-19T08:44:49.603Z,1.30
2022-11-19T08:47:36.635Z,0.97
2022-11-19T08:50:23.683Z,1.30
2022-11-19T08:53:15.143Z,1.30
2022-11-19T08:56:02.063Z,1.10
2022-11-19T08:58:48.915Z,1.40
2022-11-19T09:01:37.635Z,1.10
2022-11-19T09:04:24.763Z,1.17
2022-11-19T09:07:11.913Z,1.20
2022-11-19T09:09:58.849Z,1.33
2022-11-19T09:12:45.732Z,1.53
2022-11-19T09:15:32.615Z,1.20
2022-11-19T09:18:19.481Z,1.67
2022-11-19T09:21:06.357Z,1.43
2022-11-19T09:23:53.484Z,1.43
2022-11-19T09:26:40.481Z,1.50
2022-11-19T09:29:27.467Z,1.40
2022-11-19T09:32:14.490Z,1.47
2022-11-19T09:35:01.350Z,1.27
2022-11-19T09:37:48.210Z,1.43
2022-11-19T09:40:41.658Z,1.33
2022-11-19T09:43:33.350Z,1.30
2022-11-19T09:46:40.674Z,1.10
2022-11-19T09:49:30.934Z,1.30
2022-11-19T09:52:27.015Z,1.27
2022-11-19T09:55:17.533Z,1.40
2022-11-19T09:58:15.184Z,1.30
2022-11-19T10:01:03.990Z,1.60
2022-11-19T10:03:51.979Z,1.70
2022-11-19T10:06:50.599Z,1.43
2022-11-19T10:09:45.603Z,1.70
2022-11-19T10:12:48.857Z,1.60
2022-11-19T10:15:51.165Z,1.87
2022-11-19T10:18:55.826Z,1.67
2022-11-19T10:21:47.498Z,2.00
2022-11-19T10:24:44.310Z,2.07
2022-11-19T10:27:43.191Z,2.10
2022-11-19T10:30:39.138Z,2.27
2022-11-19T10:33:43.803Z,2.33
2022-11-19T10:36:37.558Z,2.20
2022-11-19T10:39:44.806Z,2.23
2022-11-19T10:43:07.600Z,2.10
2022-11-19T10:45:54.299Z,1.87
2022-11-19T10:48:43.931Z,2.10
2022-11-19T10:51:50.822Z,2.00
2022-11-19T10:54:48.712Z,2.37
2022-11-19T10:57:39.054Z,2.47
2022-11-19T11:00:26.325Z,2.40
2022-11-19T11:03:19.389Z,2.70
2022-11-19T11:06:20.130Z,2.27
2022-11-19T11:09:07.658Z,2.50
2022-11-19T11:11:53.099Z,2.40
2022-11-19T11:14:41.057Z,2.47
2022-11-19T11:17:57.651Z,2.27
2022-11-19T11:20:47.393Z,2.63
2022-11-19T11:23:40.075Z,3.20
2022-11-19T11:26:32.658Z,2.93
2022-11-19T11:29:22.920Z,2.83
2022-11-19T11:32:10.019Z,2.47
2022-11-19T11:35:06.921Z,2.70
2022-11-19T11:37:55.363Z,2.57
2022-11-19T11:40:43.676Z,2.80
2022-11-19T11:43:37.801Z,3.53
2022-11-19T11:46:29.227Z,3.20
2022-11-19T11:49:15.991Z,3.27
2022-11-19T11:52:02.864Z,3.10
2022-11-19T11:54:49.731Z,3.13
2022-11-19T11:57:41.610Z,2.97
2022-11-19T12:01:01.360Z,3.43
2022-11-19T12:03:54.866Z,3.10
2022-11-19T12:06:51.702Z,3.17
2022-11-19T12:09:50.276Z,3.63
2022-11-19T12:12:55.753Z,3.20
2022-11-19T12:16:12.699Z,2.57
2022-11-19T12:19:14.331Z,3.53
2022-11-19T12:22:27.391Z,3.10
2022-11-19T12:25:38.239Z,3.50
2022-11-19T12:28:51.749Z,3.03
2022-11-19T12:31:55.105Z,3.40
2022-11-19T12:34:44.576Z,3.37
2022-11-19T12:37:52.703Z,3.63
2022-11-19T12:40:41.381Z,3.30
2022-11-19T12:43:38.932Z,3.37
2022-11-19T12:47:21.177Z,3.50
2022-11-19T12:50:13.871Z,3.30
2022-11-19T12:53:35.507Z,3.50
2022-11-19T12:56:40.474Z,3.27
2022-11-19T12:59:44.805Z,3.40
2022-11-19T13:02:54.711Z,3.87
2022-11-19T13:05:59.932Z,3.37
2022-11-19T13:09:01.710Z,4.10
2022-11-19T13:11:59.343Z,3.57
2022-11-19T13:15:11.340Z,3.43
2022-11-19T13:18:02.488Z,3.33
2022-11-19T13:21:07.315Z,3.20
2022-11-19T13:24:01.825Z,3.47
2022-11-19T13:26:55.482Z,3.50
2022-11-19T13:29:42.195Z,3.43
2022-11-19T13:32:37.875Z,3.40
2022-11-19T13:35:30.978Z,3.30
2022-11-19T13:38:32.943Z,3.40
2022-11-19T13:41:34.569Z,3.50
2022-11-19T13:44:20.792Z,3.40
2022-11-19T13:47:10.358Z,3.47
2022-11-19T13:50:06.740Z,3.70
2022-11-19T13:53:03.339Z,3.23
2022-11-19T13:55:55.251Z,3.33
2022-11-19T13:58:46.600Z,3.43
2022-11-19T14:01:57.233Z,3.47
2022-11-19T14:05:08.254Z,3.23
2022-11-19T14:08:07.299Z,2.83
2022-11-19T14:10:57.804Z,3.13
2022-11-19T14:14:14.719Z,3.53
2022-11-19T14:17:17.951Z,3.13
2022-11-19T14:20:08.921Z,3.60
2022-11-19T14:23:01.370Z,3.23
2022-11-19T14:26:07.596Z,3.07
2022-11-19T14:29:05.955Z,3.10
2022-11-19T14:31:52.971Z,3.27
2022-11-19T14:34:48.551Z,3.20
2022-11-19T14:37:43.044Z,3.50
2022-11-19T14:40:32.494Z,4.07
2022-11-19T14:43:20.635Z,3.23
2022-11-19T14:46:25.459Z,3.70
2022-11-19T14:49:23.010Z,3.50
2022-11-19T14:52:15.550Z,3.23
2022-11-19T14:55:05.655Z,3.70
2022-11-19T14:58:01.478Z,3.40
2022-11-19T15:00:58.407Z,3.63
2022-11-19T15:03:47.831Z,3.63
2022-11-19T15:06:38.542Z,3.40
2022-11-19T15:09:25.792Z,3.67
2022-11-19T15:12:15.559Z,3.83
2022-11-19T15:15:02.310Z,3.60
2022-11-19T15:17:50.169Z,3.50
2022-11-19T15:20:53.100Z,3.60
2022-11-19T15:23:48.543Z,3.47
2022-11-19T15:26:48.824Z,3.43
2022-11-19T15:29:38.797Z,3.60
2022-11-19T15:32:50.054Z,3.50
2022-11-19T15:36:14.446Z,3.03
2022-11-19T15:39:14.738Z,3.67
2022-11-19T15:42:08.859Z,2.87
2022-11-19T15:45:05.296Z,3.40
2022-11-19T15:48:02.082Z,3.27
2022-11-19T15:50:49.074Z,3.23
2022-11-19T15:53:43.615Z,3.17
2022-11-19T15:56:32.628Z,3.03
2022-11-19T15:59:21.076Z,3.43
2022-11-19T16:02:18.771Z,3.17
2022-11-19T16:05:05.516Z,3.00
2022-11-19T16:07:52.677Z,3.67
2022-11-19T16:10:48.908Z,3.43
2022-11-19T16:13:42.603Z,3.03
2022-11-19T16:16:46.979Z,2.97
2022-11-19T16:19:34.642Z,2.70
2022-11-19T16:22:24.496Z,2.83
2022-11-19T16:25:23.764Z,3.10
2022-11-19T16:28:10.666Z,3.00
2022-11-19T16:31:24.638Z,2.90
2022-11-19T16:34:14.974Z,2.60
2022-11-19T16:37:06.999Z,2.93
2022-11-19T16:39:54.422Z,2.80
2022-11-19T16:42:44.491Z,2.50
2022-11-19T16:45:52.563Z,2.53
2022-11-19T16:49:10.359Z,2.43
2022-11-19T16:52:00.139Z,2.43
2022-11-19T16:55:10.607Z,2.57
2022-11-19T16:57:57.375Z,2.60
2022-11-19T17:00:52.766Z,2.90
2022-11-19T17:03:51.974Z,2.90
2022-11-19T17:06:43.701Z,2.57
2022-11-19T17:09:58.562Z,2.70
2022-11-19T17:12:53.262Z,1.97
2022-11-19T17:15:59.698Z,2.50
2022-11-19T17:18:53.064Z,2.17
2022-11-19T17:21:47.584Z,2.50
2022-11-19T17:24:37.882Z,2.17
2022-11-19T17:27:24.692Z,2.10
2022-11-19T17:30:24.643Z,2.37
2022-11-19T17:33:14.579Z,2.10
2022-11-19T17:36:07.065Z,2.07
2022-11-19T17:38:54.569Z,2.10
2022-11-19T17:41:43.386Z,1.93
2022-11-19T17:44:56.295Z,2.00
2022-11-19T17:47:43.016Z,2.00
2022-11-19T17:50:29.721Z,1.80
2022-11-19T17:53:16.438Z,2.03
2022-11-19T17:56:04.011Z,2.13
2022-11-19T17:58:50.714Z,1.70
2022-11-19T18:01:37.984Z,1.60
2022-11-19T18:04:24.876Z,1.90
2022-11-19T18:07:11.749Z,2.07
2022-11-19T18:09:59.640Z,2.00
2022-11-19T18:12:46.350Z,1.90
2022-11-19T18:15:38.631Z,2.20
2022-11-19T18:18:25.382Z,2.23
2022-11-19T18:21:12.336Z,1.97
2022-11-19T18:24:03.095Z,1.80
2022-11-19T18:26:49.813Z,1.80
2022-11-19T18:29:36.515Z,1.67
2022-11-19T18:32:23.248Z,2.00
2022-11-19T18:35:09.946Z,1.80
2022-11-19T18:37:56.844Z,2.23
2022-11-19T18:40:43.609Z,1.80
2022-11-19T18:43:29.273Z,2.50
2022-11-19T18:46:15.984Z,2.00
2022-11-19T18:49:02.768Z,2.00
2022-11-19T18:51:51.241Z,1.77
2022-11-19T18:54:38.114Z,1.70
2022-11-19T18:57:24.825Z,1.83
2022-11-19T19:00:11.524Z,2.03
2022-11-19T19:02:58.287Z,1.70
2022-11-19T19:05:45.038Z,1.60
2022-11-19T19:08:31.804Z,1.50
2022-11-19T19:11:18.227Z,1.57
2022-11-19T19:14:05.941Z,1.53
2022-11-19T19:16:52.779Z,1.40
2022-11-19T19:19:39.529Z,1.00
2022-11-19T19:22:27.350Z,1.10
2022-11-19T19:25:14.090Z,1.53
2022-11-19T19:28:00.797Z,1.10
2022-11-19T19:30:47.593Z,1.17
2022-11-19T19:33:34.294Z,1.47
2022-11-19T19:36:25.117Z,1.17
2022-11-19T19:39:12.015Z,1.30
2022-11-19T19:41:58.750Z,1.30
2022-11-19T19:44:45.493Z,1.10
2022-11-19T19:47:32.283Z,1.20
2022-11-19T19:50:19.015Z,1.17
2022-11-19T19:53:05.731Z,1.03
2022-11-19T19:55:52.516Z,1.17
2022-11-19T19:58:39.198Z,1.20
2022-11-19T20:01:37.940Z,1.17
2022-11-19T20:04:27.753Z,1.07
2022-11-19T20:07:14.622Z,1.13
2022-11-19T20:10:01.435Z,0.93
2022-11-19T20:12:48.139Z,1.13
2022-11-19T20:15:36.416Z,1.10
2022-11-19T20:18:23.361Z,1.20
2022-11-19T20:21:10.418Z,1.00
2022-11-19T20:23:57.566Z,1.60
2022-11-19T20:26:47.082Z,1.10
2022-11-19T20:29:34.087Z,0.90
2022-11-19T20:32:20.787Z,1.17
2022-11-19T20:35:07.541Z,1.10
2022-11-19T20:37:54.267Z,1.00
2022-11-19T20:40:41.043Z,1.30
2022-11-19T20:43:27.371Z,1.10
2022-11-19T20:46:14.089Z,0.90
2022-11-19T20:49:01.310Z,0.97
2022-11-19T20:51:48.035Z,1.30
2022-11-19T20:54:35.307Z,1.23
2022-11-19T20:57:22.012Z,0.77
2022-11-19T21:00:08.736Z,1.00
2022-11-19T21:02:55.975Z,0.67
2022-11-19T21:05:42.705Z,0.80
2022-11-19T21:08:29.430Z,1.07
2022-11-19T21:11:24.765Z,1.40
2022-11-19T21:14:12.300Z,0.87
2022-11-19T21:16:59.143Z,0.80
2022-11-19T21:19:45.903Z,0.83
2022-11-19T21:22:32.644Z,0.80
2022-11-19T21:25:19.358Z,1.10
2022-11-19T21:28:06.080Z,1.00
2022-11-19T21:30:53.419Z,0.90
2022-11-19T21:33:40.182Z,0.93
2022-11-19T21:36:27.683Z,1.13
2022-11-19T21:39:14.406Z,0.90
2022-11-19T21:42:01.129Z,1.00
2022-11-19T21:44:47.870Z,0.90
2022-11-19T21:47:34.595Z,1.00
2022-11-19T21:50:21.343Z,0.83
2022-11-19T21:53:08.062Z,0.80
2022-11-19T21:55:55.018Z,1.07
2022-11-19T21:58:41.703Z,1.07
2022-11-19T22:01:31.044Z,0.90
2022-11-19T22:04:17.834Z,0.70
2022-11-19T22:07:04.652Z,0.80
2022-11-19T22:09:51.859Z,0.97
2022-11-19T22:12:38.557Z,0.50
2022-11-19T22:15:26.703Z,1.00
2022-11-19T22:18:13.462Z,1.00
2022-11-19T22:21:00.173Z,0.70
2022-11-19T22:23:46.902Z,0.50
2022-11-19T22:26:34.235Z,0.90
2022-11-19T22:29:21.253Z,0.70
2022-11-19T22:32:08.192Z,0.70
2022-11-19T22:34:55.180Z,0.70
2022-11-19T22:37:41.894Z,0.63
2022-11-19T22:40:29.515Z,0.63
2022-11-19T22:43:21.559Z,0.50
2022-11-19T22:46:10.867Z,0.50
2022-11-19T22:48:58.287Z,0.50
2022-11-19T22:51:46.112Z,0.83
2022-11-19T22:54:35.108Z,0.60
2022-11-19T22:57:25.394Z,0.53
